createdAt,value
2018-04-25T00:00:32.583Z,80.70
2018-04-25T00:03:00.099Z,80.80
2018-04-25T00:05:29.304Z,80.60
2018-04-25T00:07:56.838Z,80.60
2018-04-25T00:10:25.140Z,81.30
2018-04-25T00:12:52.999Z,81.30
2018-04-25T00:15:21.287Z,81.20
2018-04-25T00:17:48.818Z,81.20
2018-04-25T00:20:17.253Z,82.00
2018-04-25T00:22:44.782Z,81.90
2018-04-25T00:25:12.325Z,82.20
2018-04-25T00:27:40.643Z,82.80
2018-04-25T00:30:08.171Z,82.60
2018-04-25T00:32:35.691Z,83.10
2018-04-25T00:35:03.739Z,83.70
2018-04-25T00:37:31.252Z,83.60
2018-04-25T00:39:58.777Z,83.90
2018-04-25T00:42:26.351Z,84.00
2018-04-25T00:44:54.648Z,84.60
2018-04-25T00:47:22.187Z,84.60
2018-04-25T00:49:50.520Z,85.70
2018-04-25T00:52:18.055Z,85.70
2018-04-25T00:54:46.350Z,85.80
2018-04-25T00:57:16.776Z,85.90
2018-04-25T00:59:44.322Z,85.90
2018-04-25T01:02:11.866Z,85.90
2018-04-25T01:04:39.427Z,86.20
2018-04-25T01:07:08.548Z,86.20
2018-04-25T01:09:36.083Z,86.50
2018-04-25T01:12:04.006Z,86.10
2018-04-25T01:14:31.530Z,86.20
2018-04-25T01:16:59.075Z,86.10
2018-04-25T01:19:27.181Z,86.60
2018-04-25T01:21:54.715Z,86.50
2018-04-25T01:24:22.287Z,86.40
2018-04-25T01:26:51.680Z,87.10
2018-04-25T01:29:21.791Z,87.00
2018-04-25T01:31:49.318Z,87.10
2018-04-25T01:34:25.998Z,87.30
2018-04-25T01:40:04.190Z,87.10
2018-04-25T01:42:38.178Z,87.70
2018-04-25T01:45:10.338Z,87.90
2018-04-25T01:47:38.670Z,87.60
2018-04-25T01:50:08.131Z,88.10
2018-04-25T01:52:47.278Z,88.10
2018-04-25T01:55:28.062Z,87.70
2018-04-25T01:58:07.504Z,87.50
2018-04-25T02:00:46.855Z,88.50
2018-04-25T02:03:15.378Z,88.90
2018-04-25T02:15:45.150Z,90.60
2018-04-25T02:18:13.613Z,90.90
2018-04-25T02:20:41.163Z,91.00
2018-04-25T02:23:08.698Z,91.10
2018-04-25T02:25:36.979Z,91.10
2018-04-25T02:28:05.288Z,91.10
2018-04-25T02:30:32.841Z,91.10
2018-04-25T02:33:00.354Z,91.10
2018-04-25T02:35:28.691Z,91.00
2018-04-25T02:37:56.868Z,91.00
2018-04-25T02:40:24.399Z,91.20
2018-04-25T02:42:51.935Z,91.20
2018-04-25T02:45:19.519Z,91.30
2018-04-25T02:47:47.131Z,91.20
2018-04-25T02:50:16.379Z,91.10
2018-04-25T02:52:43.919Z,91.10
2018-04-25T02:55:11.451Z,91.10
2018-04-25T02:57:38.976Z,91.50
2018-04-25T03:00:06.581Z,91.50
2018-04-25T03:02:34.886Z,91.90
2018-04-25T03:05:02.427Z,91.90
2018-04-25T03:07:30.007Z,92.10
2018-04-25T03:09:57.539Z,92.10
2018-04-25T03:12:25.064Z,92.30
2018-04-25T03:14:52.679Z,92.60
2018-04-25T03:17:20.747Z,92.70
2018-04-25T03:19:48.290Z,92.90
2018-04-25T03:22:17.767Z,93.20
2018-04-25T03:24:45.298Z,93.10
2018-04-25T03:27:13.743Z,93.30
2018-04-25T03:29:41.289Z,93.50
2018-04-25T03:32:09.669Z,93.70
2018-04-25T03:34:37.967Z,93.80
2018-04-25T03:37:05.531Z,93.80
2018-04-25T03:39:33.058Z,93.90
2018-04-25T03:42:01.383Z,93.90
2018-04-25T03:44:29.353Z,93.90
2018-04-25T03:46:56.875Z,94.10
2018-04-25T03:49:24.410Z,94.10
2018-04-25T03:51:52.771Z,94.20
2018-04-25T03:54:20.322Z,94.20
2018-04-25T03:56:47.864Z,94.20
2018-04-25T03:59:15.571Z,94.00
2018-04-25T04:01:43.902Z,94.10
2018-04-25T04:04:11.787Z,94.10
2018-04-25T04:06:39.415Z,94.30
2018-04-25T04:09:06.940Z,94.50
2018-04-25T04:11:34.459Z,94.60
2018-04-25T04:14:02.104Z,94.70
2018-04-25T04:16:30.356Z,95.00
2018-04-25T04:18:58.235Z,95.00
2018-04-25T04:21:25.830Z,95.00
2018-04-25T04:23:53.353Z,95.20
2018-04-25T04:26:20.938Z,95.20
2018-04-25T04:28:48.878Z,95.30
2018-04-25T04:31:17.233Z,95.60
2018-04-25T04:33:45.766Z,95.50
2018-04-25T04:36:25.111Z,95.50
2018-04-25T04:38:52.691Z,95.50
2018-04-25T04:41:21.060Z,95.50
2018-04-25T04:43:48.627Z,95.50
2018-04-25T04:46:17.906Z,95.50
2018-04-25T04:48:45.425Z,95.60
2018-04-25T04:51:26.029Z,95.60
2018-04-25T04:57:01.143Z,95.60
2018-04-25T04:59:28.661Z,96.00
2018-04-25T05:01:56.187Z,96.10
2018-04-25T05:04:23.738Z,96.20
2018-04-25T05:06:51.693Z,96.00
2018-04-25T05:09:19.163Z,96.10
2018-04-25T05:11:46.729Z,96.30
2018-04-25T05:14:15.523Z,95.90
2018-04-25T05:16:43.045Z,95.70
2018-04-25T05:19:11.142Z,95.70
2018-04-25T05:21:38.659Z,95.50
2018-04-25T05:24:06.947Z,95.90
2018-04-25T05:26:34.551Z,95.60
2018-04-25T05:29:02.066Z,95.70
2018-04-25T05:31:30.393Z,95.70
2018-04-25T05:33:58.396Z,95.60
2018-04-25T05:36:26.694Z,95.90
2018-04-25T05:38:54.216Z,95.80
2018-04-25T05:41:22.526Z,95.90
2018-04-25T05:43:50.114Z,95.90
2018-04-25T05:46:17.654Z,95.60
2018-04-25T05:48:45.203Z,95.70
2018-04-25T05:51:13.654Z,95.50
2018-04-25T05:53:41.949Z,94.60
2018-04-25T05:56:09.799Z,94.50
2018-04-25T05:58:38.088Z,93.80
2018-04-25T06:01:06.393Z,93.50
2018-04-25T06:03:34.969Z,93.50
2018-04-25T06:06:02.523Z,93.20
2018-04-25T06:08:30.053Z,92.90
2018-04-25T06:10:58.363Z,92.70
2018-04-25T06:13:26.044Z,92.70
2018-04-25T06:15:53.578Z,92.20
2018-04-25T06:18:21.168Z,91.40
2018-04-25T06:20:49.582Z,90.30
2018-04-25T06:23:17.096Z,86.90
2018-04-25T06:25:44.631Z,83.40
2018-04-25T06:28:12.238Z,76.90
2018-04-25T06:30:40.461Z,67.10
2018-04-25T06:33:08.002Z,67.10
2018-04-25T06:35:36.309Z,63.00
2018-04-25T06:38:03.838Z,62.70
2018-04-25T06:40:31.863Z,63.50
2018-04-25T06:42:59.391Z,63.60
2018-04-25T06:45:26.910Z,62.00
2018-04-25T06:47:55.286Z,60.60
2018-04-25T06:50:22.802Z,60.50
2018-04-25T06:52:50.313Z,57.80
2018-04-25T06:55:18.627Z,54.70
2018-04-25T06:57:46.158Z,54.60
2018-04-25T07:00:15.462Z,53.70
2018-04-25T07:02:43.318Z,53.60
2018-04-25T07:05:11.672Z,47.80
2018-04-25T07:07:39.187Z,47.70
2018-04-25T07:10:06.726Z,45.20
2018-04-25T07:12:33.789Z,43.90
2018-04-25T07:15:01.310Z,44.80
2018-04-25T07:17:29.629Z,42.20
2018-04-25T07:19:57.146Z,42.20
2018-04-25T07:22:25.780Z,40.30
2018-04-25T07:24:53.630Z,40.30
2018-04-25T07:27:21.178Z,40.20
2018-04-25T07:29:48.690Z,41.30
2018-04-25T07:32:16.452Z,39.50
2018-04-25T07:34:43.987Z,38.30
2018-04-25T07:37:11.504Z,38.20
2018-04-25T07:39:39.039Z,38.00
2018-04-25T07:42:07.346Z,38.60
2018-04-25T07:44:34.909Z,37.90
2018-04-25T07:47:03.216Z,36.90
2018-04-25T07:49:30.862Z,37.00
2018-04-25T07:51:58.390Z,38.30
2018-04-25T07:54:26.696Z,34.90
2018-04-25T07:56:54.212Z,34.90
2018-04-25T07:59:22.502Z,36.10
2018-04-25T08:01:51.026Z,35.70
2018-04-25T08:04:18.547Z,35.70
2018-04-25T08:06:46.054Z,34.60
2018-04-25T08:09:15.813Z,33.30
2018-04-25T08:11:44.111Z,35.10
2018-04-25T08:14:23.301Z,35.10
2018-04-25T08:17:03.378Z,36.40
2018-04-25T08:19:54.639Z,36.30
2018-04-25T08:22:22.154Z,36.40
2018-04-25T08:24:50.605Z,36.40
2018-04-25T08:27:18.634Z,35.00
2018-04-25T08:29:46.155Z,35.60
2018-04-25T08:32:26.669Z,33.00
2018-04-25T08:38:55.439Z,33.20
2018-04-25T08:41:22.959Z,31.90
2018-04-25T08:43:51.266Z,34.30
2018-04-25T08:46:18.863Z,34.20
2018-04-25T08:48:46.380Z,35.50
2018-04-25T08:51:26.560Z,32.30
2018-04-25T08:54:10.162Z,31.90
2018-04-25T08:56:38.474Z,32.00
2018-04-25T08:59:06.458Z,31.80
2018-04-25T09:01:33.983Z,32.30
2018-04-25T09:04:01.827Z,32.00
2018-04-25T09:06:30.099Z,33.00
2018-04-25T09:08:57.610Z,32.90
2018-04-25T09:11:25.171Z,33.50
2018-04-25T09:13:52.696Z,32.10
2018-04-25T09:16:20.224Z,33.60
2018-04-25T09:18:47.773Z,32.10
2018-04-25T09:21:15.506Z,33.90
2018-04-25T09:23:43.015Z,36.50
2018-04-25T09:26:14.869Z,35.60
2018-04-25T09:28:43.478Z,34.50
2018-04-25T09:31:10.997Z,34.50
2018-04-25T09:33:38.530Z,36.10
2018-04-25T09:36:06.045Z,34.90
2018-04-25T09:38:34.317Z,32.80
2018-04-25T09:41:02.642Z,33.40
2018-04-25T09:43:30.180Z,33.30
2018-04-25T09:45:57.775Z,34.00
2018-04-25T09:48:25.798Z,34.30
2018-04-25T09:50:53.339Z,36.80
2018-04-25T09:53:20.866Z,37.30
2018-04-25T09:55:48.418Z,36.20
2018-04-25T09:58:16.821Z,37.00
2018-04-25T10:00:50.071Z,38.70
2018-04-25T10:03:23.430Z,39.30
2018-04-25T10:05:52.266Z,40.30
2018-04-25T10:08:19.782Z,40.20
2018-04-25T10:10:47.726Z,41.00
2018-04-25T10:13:16.294Z,40.20
2018-04-25T10:15:43.810Z,39.50
2018-04-25T10:18:11.365Z,39.90
2018-04-25T10:20:38.923Z,39.20
2018-04-25T10:23:06.467Z,40.00
2018-04-25T10:25:34.046Z,40.20
2018-04-25T10:28:02.398Z,41.00
2018-04-25T10:30:30.669Z,41.20
2018-04-25T10:32:59.139Z,40.80
2018-04-25T10:35:27.470Z,40.30
2018-04-25T10:37:54.995Z,40.30
2018-04-25T10:40:22.525Z,39.80
2018-04-25T10:42:50.642Z,39.70
2018-04-25T10:45:18.179Z,40.40
2018-04-25T10:47:45.710Z,40.10
2018-04-25T10:50:15.694Z,40.60
2018-04-25T10:52:43.205Z,40.60
2018-04-25T10:55:10.769Z,40.30
2018-04-25T10:57:38.339Z,41.70
2018-04-25T11:00:05.881Z,41.30
2018-04-25T11:02:34.218Z,41.10
2018-04-25T11:05:01.819Z,40.90
2018-04-25T11:07:30.193Z,40.80
2018-04-25T11:09:57.649Z,40.80
2018-04-25T11:12:26.325Z,39.30
2018-04-25T11:14:55.350Z,39.20
2018-04-25T11:17:22.871Z,39.20
2018-04-25T11:19:50.440Z,38.30
2018-04-25T11:22:18.730Z,40.00
2018-04-25T11:24:47.086Z,38.30
2018-04-25T11:27:15.504Z,38.20
2018-04-25T11:29:43.306Z,37.70
2018-04-25T11:32:11.338Z,39.60
2018-04-25T11:34:38.963Z,38.70
2018-04-25T11:37:07.292Z,40.20
2018-04-25T11:39:34.839Z,40.20
2018-04-25T11:42:02.607Z,39.20
2018-04-25T11:44:30.584Z,39.60
2018-04-25T11:46:58.779Z,40.20
2018-04-25T11:49:27.299Z,39.10
2018-04-25T11:51:55.587Z,39.10
2018-04-25T11:54:23.931Z,38.50
2018-04-25T11:56:52.234Z,38.40
2018-04-25T11:59:20.620Z,38.60
2018-04-25T12:01:48.529Z,38.60
2018-04-25T12:04:16.653Z,38.00
2018-04-25T12:06:44.343Z,37.80
2018-04-25T12:09:13.751Z,38.30
2018-04-25T12:11:41.367Z,38.90
2018-04-25T12:14:08.939Z,37.10
2018-04-25T12:16:36.471Z,37.20
2018-04-25T12:19:04.314Z,36.20
2018-04-25T12:21:31.847Z,35.70
2018-04-25T12:23:59.407Z,34.00
2018-04-25T12:26:27.918Z,36.30
2018-04-25T12:28:55.455Z,35.90
2018-04-25T12:31:23.412Z,36.60
2018-04-25T12:33:50.964Z,37.00
2018-04-25T12:36:18.495Z,37.70
2018-04-25T12:38:46.018Z,36.20
2018-04-25T12:41:15.514Z,34.80
2018-04-25T12:43:43.026Z,34.80
2018-04-25T12:46:11.308Z,33.80
2018-04-25T12:48:38.853Z,33.80
2018-04-25T12:51:06.371Z,34.80
2018-04-25T12:53:33.895Z,33.20
2018-04-25T12:56:01.443Z,35.00
2018-04-25T12:58:28.969Z,33.20
2018-04-25T13:00:57.315Z,33.00
2018-04-25T13:03:25.153Z,32.90
2018-04-25T13:05:52.684Z,33.20
2018-04-25T13:08:21.017Z,34.60
2018-04-25T13:10:48.570Z,34.50
2018-04-25T13:13:17.220Z,32.90
2018-04-25T13:15:45.535Z,32.80
2018-04-25T13:18:19.750Z,34.80
2018-04-25T13:20:47.275Z,34.80
2018-04-25T13:23:17.170Z,34.60
2018-04-25T13:25:45.075Z,34.60
2018-04-25T13:28:12.619Z,35.60
2018-04-25T13:30:40.157Z,34.70
2018-04-25T13:33:08.771Z,34.80
2018-04-25T13:35:36.302Z,34.80
2018-04-25T13:38:04.591Z,36.00
2018-04-25T13:40:32.121Z,36.00
2018-04-25T13:42:59.644Z,37.00
2018-04-25T13:45:27.160Z,36.10
2018-04-25T13:47:55.046Z,36.70
2018-04-25T13:50:22.566Z,37.40
2018-04-25T13:52:50.883Z,35.80
2018-04-25T13:55:18.441Z,35.90
2018-04-25T13:57:45.963Z,36.40
2018-04-25T14:00:15.383Z,35.20
2018-04-25T14:02:42.930Z,35.20
2018-04-25T14:05:11.224Z,34.60
2018-04-25T14:07:38.751Z,34.60
2018-04-25T14:10:07.296Z,35.90
2018-04-25T14:12:34.811Z,36.90
2018-04-25T14:15:03.095Z,36.70
2018-04-25T14:17:30.647Z,36.60
2018-04-25T14:19:58.228Z,37.60
2018-04-25T14:22:26.503Z,36.20
2018-04-25T14:24:54.083Z,36.20
2018-04-25T14:27:21.599Z,37.10
2018-04-25T14:29:49.902Z,37.50
2018-04-25T14:32:17.719Z,37.40
2018-04-25T14:34:45.513Z,36.60
2018-04-25T14:37:25.011Z,37.10
2018-04-25T14:42:25.417Z,37.20
2018-04-25T14:44:53.122Z,37.60
2018-04-25T14:47:20.646Z,36.50
2018-04-25T14:49:48.923Z,36.90
2018-04-25T14:52:16.505Z,36.90
2018-04-25T14:54:44.090Z,37.50
2018-04-25T14:57:11.561Z,37.00
2018-04-25T14:59:39.158Z,37.50
2018-04-25T15:02:06.675Z,37.40
2018-04-25T15:04:35.755Z,37.90
2018-04-25T15:07:04.027Z,37.90
2018-04-25T15:09:31.563Z,37.20
2018-04-25T15:11:59.155Z,37.40
2018-04-25T15:14:27.200Z,37.90
2018-04-25T15:16:55.515Z,37.00
2018-04-25T15:19:23.802Z,38.10
2018-04-25T15:21:51.354Z,38.10
2018-04-25T15:24:20.045Z,37.30
2018-04-25T15:26:47.595Z,37.20
2018-04-25T15:29:15.906Z,37.50
2018-04-25T15:31:43.556Z,37.60
2018-04-25T15:34:12.288Z,37.60
2018-04-25T15:36:41.888Z,38.20
2018-04-25T15:39:09.549Z,38.30
2018-04-25T15:41:37.202Z,37.50
2018-04-25T15:44:05.561Z,37.90
2018-04-25T15:46:34.642Z,37.80
2018-04-25T15:49:02.970Z,38.50
2018-04-25T15:51:30.542Z,38.40
2018-04-25T15:54:00.618Z,38.90
2018-04-25T15:56:28.196Z,38.90
2018-04-25T15:58:56.320Z,39.40
2018-04-25T16:01:25.006Z,39.60
2018-04-25T16:03:52.592Z,39.30
2018-04-25T16:06:20.179Z,39.10
2018-04-25T16:08:47.838Z,39.70
2018-04-25T16:11:15.522Z,39.30
2018-04-25T16:13:44.022Z,40.30
2018-04-25T16:16:11.642Z,40.20
2018-04-25T16:18:39.194Z,40.10
2018-04-25T16:21:06.956Z,40.70
2018-04-25T16:23:34.530Z,40.60
2018-04-25T16:26:02.168Z,40.70
2018-04-25T16:28:29.722Z,41.20
2018-04-25T16:30:57.279Z,41.80
2018-04-25T16:33:24.865Z,41.90
2018-04-25T16:35:53.212Z,41.20
2018-04-25T16:38:21.174Z,41.20
2018-04-25T16:40:48.696Z,41.70
2018-04-25T16:43:16.914Z,41.50
2018-04-25T16:45:44.451Z,42.60
2018-04-25T16:48:12.002Z,42.50
2018-04-25T16:50:39.588Z,42.20
2018-04-25T16:53:07.128Z,42.70
2018-04-25T16:55:34.648Z,43.40
2018-04-25T16:58:02.978Z,43.50
2018-04-25T17:00:30.573Z,43.40
2018-04-25T17:02:58.880Z,44.00
2018-04-25T17:05:27.932Z,43.70
2018-04-25T17:07:55.487Z,43.70
2018-04-25T17:10:23.049Z,43.90
2018-04-25T17:12:50.593Z,43.90
2018-04-25T17:15:18.106Z,43.40
2018-04-25T17:17:45.685Z,43.70
2018-04-25T17:20:15.526Z,44.30
2018-04-25T17:22:43.116Z,44.30
2018-04-25T17:25:10.700Z,44.50
2018-04-25T17:27:38.908Z,42.90
2018-04-25T17:30:06.435Z,42.00
2018-04-25T17:32:34.718Z,41.20
2018-04-25T17:35:02.271Z,41.00
2018-04-25T17:37:30.628Z,41.20
2018-04-25T17:39:58.510Z,41.20
2018-04-25T17:42:26.962Z,43.90
2018-04-25T17:44:54.704Z,43.80
2018-04-25T17:47:22.242Z,44.90
2018-04-25T17:49:50.067Z,45.50
2018-04-25T17:52:17.605Z,46.30
2018-04-25T17:54:45.197Z,46.70
2018-04-25T17:57:13.712Z,47.10
2018-04-25T17:59:41.223Z,47.30
2018-04-25T18:02:09.536Z,47.90
2018-04-25T18:04:37.192Z,47.90
2018-04-25T18:07:04.726Z,47.90
2018-04-25T18:09:32.320Z,48.50
2018-04-25T18:12:00.878Z,48.80
2018-04-25T18:14:28.410Z,49.00
2018-04-25T18:16:55.989Z,49.30
2018-04-25T18:19:23.499Z,49.50
2018-04-25T18:21:51.126Z,49.90
2018-04-25T18:24:18.726Z,50.40
2018-04-25T18:26:46.282Z,50.80
2018-04-25T18:29:15.493Z,50.90
2018-04-25T18:31:42.999Z,51.40
2018-04-25T18:34:10.558Z,51.80
2018-04-25T18:36:39.406Z,52.20
2018-04-25T18:39:06.987Z,52.40
2018-04-25T18:41:36.222Z,52.50
2018-04-25T18:44:03.804Z,52.20
2018-04-25T18:46:31.474Z,52.30
2018-04-25T18:48:59.091Z,52.80
2018-04-25T18:51:26.690Z,53.30
2018-04-25T18:53:54.364Z,53.50
2018-04-25T18:56:21.974Z,53.70
2018-04-25T18:58:49.580Z,53.70
2018-04-25T19:01:17.101Z,53.90
2018-04-25T19:03:44.647Z,53.90
2018-04-25T19:06:12.194Z,54.40
2018-04-25T19:08:39.765Z,54.70
2018-04-25T19:11:07.362Z,54.50
2018-04-25T19:13:34.874Z,54.80
2018-04-25T19:16:02.447Z,55.40
2018-04-25T19:18:30.051Z,55.70
2018-04-25T19:20:57.622Z,56.10
2018-04-25T19:23:25.195Z,56.10
2018-04-25T19:25:53.544Z,57.00
2018-04-25T19:28:21.091Z,57.00
2018-04-25T19:30:48.624Z,57.10
2018-04-25T19:33:16.478Z,57.40
2018-04-25T19:35:44.014Z,57.60
2018-04-25T19:38:11.541Z,58.00
2018-04-25T19:40:39.151Z,61.80
2018-04-25T19:43:07.427Z,61.60
2018-04-25T19:45:34.980Z,63.70
2018-04-25T19:48:03.294Z,63.60
2018-04-25T19:50:30.825Z,63.70
2018-04-25T19:52:58.375Z,63.90
2018-04-25T19:55:25.931Z,64.50
2018-04-25T19:57:53.471Z,64.00
2018-04-25T20:00:21.749Z,65.10
2018-04-25T20:02:50.123Z,65.40
2018-04-25T20:05:18.416Z,65.50
2018-04-25T20:07:45.936Z,65.50
2018-04-25T20:10:14.649Z,65.90
2018-04-25T20:12:42.955Z,67.30
2018-04-25T20:15:10.675Z,67.20
2018-04-25T20:17:38.265Z,68.00
2018-04-25T20:20:06.631Z,69.30
2018-04-25T20:22:34.187Z,69.20
2018-04-25T20:25:02.543Z,69.80
2018-04-25T20:27:30.052Z,69.70
2018-04-25T20:29:57.578Z,69.70
2018-04-25T20:32:25.161Z,69.80
2018-04-25T20:34:52.858Z,70.20
2018-04-25T20:37:20.403Z,70.10
2018-04-25T20:39:47.938Z,70.00
2018-04-25T20:42:17.234Z,70.00
2018-04-25T20:44:45.236Z,69.90
2018-04-25T20:47:14.865Z,70.20
2018-04-25T20:49:42.383Z,70.10
2018-04-25T20:52:09.908Z,70.70
2018-04-25T20:54:37.464Z,70.60
2018-04-25T20:57:04.986Z,71.00
2018-04-25T20:59:32.502Z,71.10
2018-04-25T21:02:00.102Z,70.80
2018-04-25T21:04:27.746Z,70.70
2018-04-25T21:06:55.263Z,70.80
2018-04-25T21:09:22.843Z,70.40
2018-04-25T21:11:50.368Z,70.60
2018-04-25T21:14:17.893Z,70.60
2018-04-25T21:16:45.431Z,70.60
2018-04-25T21:19:14.416Z,71.40
2018-04-25T21:21:41.947Z,71.40
2018-04-25T21:24:09.503Z,71.70
2018-04-25T21:26:37.015Z,71.60
2018-04-25T21:29:04.528Z,73.00
2018-04-25T21:31:32.471Z,77.70
2018-04-25T21:33:59.894Z,78.70
2018-04-25T21:36:27.427Z,78.60
2018-04-25T21:38:55.743Z,82.80
2018-04-25T21:41:23.282Z,82.80
2018-04-25T21:43:50.795Z,85.90
2018-04-25T21:46:18.993Z,86.30
2018-04-25T21:48:46.522Z,87.70
2018-04-25T21:51:16.281Z,89.20
2018-04-25T21:53:44.028Z,89.10
2018-04-25T21:56:11.555Z,90.10
2018-04-25T21:58:39.071Z,89.10
2018-04-25T22:01:06.752Z,90.00
2018-04-25T22:03:34.273Z,88.80
2018-04-25T22:06:01.785Z,90.70
2018-04-25T22:08:29.323Z,91.40
2018-04-25T22:10:56.855Z,90.50
2018-04-25T22:13:24.382Z,91.90
2018-04-25T22:15:53.416Z,91.40
2018-04-25T22:18:20.942Z,91.40
2018-04-25T22:20:48.467Z,90.50
2018-04-25T22:23:17.233Z,92.00
2018-04-25T22:25:44.747Z,92.00
2018-04-25T22:28:12.271Z,91.60
2018-04-25T22:30:39.826Z,92.00
2018-04-25T22:33:07.339Z,92.20
2018-04-25T22:35:34.910Z,93.30
2018-04-25T22:38:03.088Z,93.00
2018-04-25T22:40:30.606Z,93.30
2018-04-25T22:42:58.136Z,92.70
2018-04-25T22:45:25.679Z,92.60
2018-04-25T22:47:53.987Z,92.70
2018-04-25T22:50:21.510Z,93.00
2018-04-25T22:52:49.052Z,94.20
2018-04-25T22:55:16.603Z,93.70
2018-04-25T22:57:44.146Z,92.90
2018-04-25T23:00:11.922Z,92.90
2018-04-25T23:02:39.465Z,92.30
2018-04-25T23:05:07.772Z,93.10
2018-04-25T23:07:35.327Z,93.10
2018-04-25T23:10:02.843Z,93.50
2018-04-25T23:12:31.143Z,93.40
2018-04-25T23:14:58.704Z,93.40
2018-04-25T23:17:26.222Z,93.20
2018-04-25T23:19:53.743Z,92.60
2018-04-25T23:22:21.934Z,92.40
2018-04-25T23:24:49.455Z,92.90
2018-04-25T23:27:16.981Z,93.60
2018-04-25T23:29:44.532Z,93.80
2018-04-25T23:32:12.062Z,93.80
2018-04-25T23:34:39.578Z,94.10
2018-04-25T23:37:07.128Z,94.40
2018-04-25T23:39:35.419Z,95.40
2018-04-25T23:42:02.931Z,95.40
2018-04-25T23:44:30.810Z,94.40
2018-04-25T23:46:58.327Z,93.50
2018-04-25T23:49:26.784Z,94.30
2018-04-25T23:51:54.346Z,93.90
2018-04-25T23:54:22.662Z,95.40
2018-04-25T23:56:50.543Z,95.40
2018-04-25T23:59:18.082Z,94.40
